Aérodrome :
LOGIN :

S'inscrire | Disclaimer

   EN    FR    IT 

 










Légende :    VFR   VFR Marginal   IFR   IFR Intensif   IFR Très Intensif
Visi : 
Plafond : 
>= 8 km
>= 3000ft
5 à 8 km
1000 à 3000 ft
1500m à 5 km
500 à 1000 ft
800 à 1500m
200 à 500 ft
< 800m
< 200 ft
Symboles :   Orages  Brouillard  Fortes neiges  Fortes précipitations  Vent > 20 kt
SIGMETs :   Divers  Orages  Givrage  Turbulence  Onde Orograph.  Cendres Volcan.







- Altitude de l'aérodrome : 479 ft
- Code IATA : DOL
- Voir les cartes d'approche


LFRG - Deauville

DERNIER METAR :
  • 250030Z AUTO 27009KT 9999 SCT014 BKN036 BKN076 12/10 Q1013

METARs EXPIRÉS :
  • 250000Z AUTO 28011KT 9999 OVC014 13/10 Q1014
  • 242330Z AUTO 28010KT 9999 OVC016 13/10 Q1014
  • 242300Z AUTO 27010KT 9999 SCT019 SCT027 BKN033 13/10 Q1014
  • 242230Z AUTO 26007KT 9999 BKN034 BKN048 OVC130 13/10 Q1014
  • 242200Z AUTO 25005KT 9999 FEW043 BKN054 12/10 Q1014

Prévision TAF périmée.
ATIS : +33 2 31 65 65 36
Pas de NOTAMs connus pour ce terrain.



MET'MAP, la Météo Aéronautique d'un coup d'oeil ! - Copyright ORBIFLY Décembre 2007 - Disclaimer

ORBIFLY MET'MAP TEAM :

Programmation & Développement : Alexandra Zaïnal
Conception & Développement : Baudouin d'Aumeries
Co-Programmation & Développement : Marc-Olivier Méhu
Soutien technique & logistique : Manuel Goepfert

Contact : metmap@orbifly.com




SOURCES & CREDITS :

   NOAA